KFNT/FNT METAR and TAF weather

Enter ICAO airport designator
Station Type Date Time Source
KFNT METAR 2024/04/15 09:53 UTC NOAA

KFNT 150953Z 00000KT 10SM BKN095 06/05 A2991 RMK AO2 SLP127 T00610050


Station Type Date Time Source
KFNT Decoded METAR 2024/04/15 09:53 UTC NOAA

FLINT BISHOP INTERNATIONAL AIRPORT, MI, United States (KFNT) 42-58N 83-45W 233M
Apr 15, 2024 - 05:53 AM EDT / 2024.04.15 0953 UTC
Wind: Calm:0
Visibility: 10 mile(s):0
Sky conditions: mostly cloudy
Temperature: 43.0 F (6.1 C)
Dew Point: 41.0 F (5.0 C)
Relative Humidity: 92%
Pressure (altimeter): 29.91 in. Hg (1012 hPa)
ob: KFNT 150953Z 00000KT 10SM BKN095 06/05 A2991 RMK AO2 SLP127 T00610050
cycle: 10

Station Type Date Time Source
KFNT TAF 2024/04/15 07:15 UTC NOAA